Time;durP1;ratioP1;P1;durP2;ratioP2;P2;SDS_P1;SDS_P2;PMS_P1;PMS_P2;Temp;Humidity;BMP_temperature;BMP_pressure;BME280_temperature;BME280_humidity;BME280_pressure;Samples;Min_cycle;Max_cycle;Signal;HPM_P1;HPM_P2
2021/10/19 00:01:54;;;;;;;13.25;6.72;;;9.50;99.90;;;;;;5070812;28;20047;-71
2021/10/19 00:04:58;;;;;;;19.55;9.35;;;9.60;99.90;;;;;;5067147;28;20482;-71
2021/10/19 00:08:02;;;;;;;18.75;11.27;;;9.70;99.90;;;;;;5060764;28;20127;-71
2021/10/19 00:11:07;;;;;;;18.77;10.45;;;9.80;99.90;;;;;;5050864;28;20059;-71
2021/10/19 00:14:11;;;;;;;16.17;10.07;;;9.80;99.90;;;;;;5069559;28;20482;-71
2021/10/19 00:17:15;;;;;;;16.48;9.60;;;9.80;99.90;;;;;;5069701;28;20410;-71
2021/10/19 00:20:19;;;;;;;17.38;10.60;;;9.80;99.90;;;;;;5070213;28;20040;-71
2021/10/19 00:23:24;;;;;;;12.60;8.00;;;9.70;99.90;;;;;;5050703;28;20403;-71
2021/10/19 00:26:28;;;;;;;14.63;9.45;;;9.60;99.90;;;;;;5050260;28;20307;-71
2021/10/19 00:29:32;;;;;;;14.32;9.70;;;9.50;99.90;;;;;;5049707;28;20495;-71
2021/10/19 00:32:38;;;;;;;13.18;7.57;;;9.40;99.90;;;;;;5050599;28;20039;-71
2021/10/19 00:35:42;;;;;;;12.75;7.15;;;9.40;99.90;;;;;;5064657;28;20387;-71
2021/10/19 00:38:46;;;;;;;9.85;4.80;;;9.40;99.90;;;;;;5069644;28;20043;-71
2021/10/19 00:41:50;;;;;;;8.55;4.30;;;9.40;99.90;;;;;;5069887;28;20036;-71
2021/10/19 00:44:54;;;;;;;6.35;4.10;;;9.50;99.90;;;;;;5056140;28;20491;-71
2021/10/19 00:47:58;;;;;;;6.32;3.85;;;9.60;99.90;;;;;;5054075;28;20048;-71
2021/10/19 00:51:02;;;;;;;6.50;3.85;;;9.60;99.90;;;;;;5050203;28;20045;-71
2021/10/19 00:54:06;;;;;;;6.15;3.95;;;9.60;99.90;;;;;;5050456;28;20040;-71
2021/10/19 00:57:12;;;;;;;9.02;5.00;;;9.70;99.90;;;;;;5050068;28;20041;-71
2021/10/19 01:00:16;;;;;;;7.53;5.07;;;9.70;99.90;;;;;;5049865;28;20369;-71
2021/10/19 01:03:20;;;;;;;11.10;4.97;;;9.60;99.90;;;;;;5067439;28;20036;-71
2021/10/19 01:06:25;;;;;;;9.23;4.50;;;9.60;99.90;;;;;;5068490;28;20131;-71
2021/10/19 01:09:29;;;;;;;8.05;5.45;;;9.60;99.90;;;;;;5069686;28;20041;-71
2021/10/19 01:12:34;;;;;;;10.55;5.20;;;9.50;99.90;;;;;;5069010;28;20099;-71
2021/10/19 01:15:39;;;;;;;7.50;5.15;;;9.40;99.90;;;;;;5061052;28;20041;-71
2021/10/19 01:18:43;;;;;;;8.88;5.22;;;9.40;99.90;;;;;;5049772;28;20045;-71
2021/10/19 01:21:53;;;;;;;7.97;6.00;;;9.30;99.90;;;;;;5049940;28;20331;-71
2021/10/19 01:24:57;;;;;;;12.48;6.32;;;9.20;99.90;;;;;;5063525;28;20036;-71
2021/10/19 01:28:05;;;;;;;11.75;7.25;;;9.20;99.90;;;;;;5065838;28;20040;-71
2021/10/19 01:31:13;;;;;;;13.30;8.10;;;9.10;99.90;;;;;;5049896;28;20040;-71
2021/10/19 01:34:17;;;;;;;11.13;6.53;;;9.10;99.90;;;;;;5067007;28;20044;-71
2021/10/19 01:37:21;;;;;;;12.38;7.30;;;9.00;99.90;;;;;;5062597;28;20047;-71
2021/10/19 01:40:26;;;;;;;12.15;7.50;;;8.90;99.90;;;;;;5049410;28;20044;-71
2021/10/19 01:43:30;;;;;;;12.57;7.85;;;8.80;99.90;;;;;;5065599;28;20039;-71
2021/10/19 01:46:34;;;;;;;12.50;7.97;;;8.60;99.90;;;;;;5063988;28;20499;-71
2021/10/19 01:49:39;;;;;;;12.95;7.72;;;8.60;99.90;;;;;;5052349;28;20044;-71
2021/10/19 01:52:43;;;;;;;11.55;6.88;;;8.40;99.90;;;;;;5053111;28;20040;-71
2021/10/19 01:55:47;;;;;;;11.50;6.32;;;8.30;99.90;;;;;;5062891;28;20048;-71
2021/10/19 01:58:51;;;;;;;11.30;6.13;;;8.30;99.90;;;;;;5072996;28;20123;-71
2021/10/19 02:01:55;;;;;;;8.75;5.50;;;8.30;99.90;;;;;;5052656;28;20108;-71
2021/10/19 02:05:00;;;;;;;12.55;6.00;;;8.30;99.90;;;;;;5065268;28;20032;-72
2021/10/19 02:08:05;;;;;;;9.50;6.25;;;8.30;99.90;;;;;;5072663;28;20067;-71
2021/10/19 02:11:09;;;;;;;10.70;6.65;;;8.40;99.90;;;;;;5053129;28;20358;-71
2021/10/19 02:14:12;;;;;;;11.57;6.30;;;8.50;99.90;;;;;;5056599;28;20044;-70
2021/10/19 02:17:16;;;;;;;10.63;6.32;;;8.60;99.90;;;;;;5052519;28;20115;-71
2021/10/19 02:20:21;;;;;;;11.45;7.13;;;8.60;99.90;;;;;;5052571;28;20040;-71
2021/10/19 02:23:26;;;;;;;15.90;8.60;;;8.60;99.90;;;;;;5068243;28;20039;-71
2021/10/19 02:26:30;;;;;;;18.15;8.45;;;8.60;99.90;;;;;;5071564;28;20047;-71
2021/10/19 02:29:34;;;;;;;14.80;8.30;;;8.60;99.90;;;;;;5072442;28;20048;-71
2021/10/19 02:32:39;;;;;;;17.55;7.68;;;8.50;99.90;;;;;;5053361;28;20040;-71
2021/10/19 02:35:43;;;;;;;12.43;8.30;;;8.50;99.90;;;;;;5055700;28;20055;-71
2021/10/19 02:38:47;;;;;;;14.60;8.68;;;8.50;99.90;;;;;;5072474;28;20077;-71
2021/10/19 02:41:51;;;;;;;11.93;7.03;;;8.50;99.90;;;;;;5071373;28;20047;-71
2021/10/19 02:44:55;;;;;;;13.02;7.00;;;8.40;99.90;;;;;;5065780;28;20036;-71
2021/10/19 02:47:59;;;;;;;11.27;6.40;;;8.40;99.90;;;;;;5052431;28;20689;-71
2021/10/19 02:51:03;;;;;;;12.27;6.75;;;8.40;99.90;;;;;;5052536;28;20059;-71
2021/10/19 02:54:10;;;;;;;12.15;7.78;;;8.30;99.90;;;;;;5051829;28;20049;-71
2021/10/19 02:57:14;;;;;;;14.05;7.28;;;8.20;99.90;;;;;;5052104;28;20044;-71
2021/10/19 03:00:18;;;;;;;11.73;7.18;;;8.10;99.90;;;;;;5071373;28;20502;-71
2021/10/19 03:03:22;;;;;;;8.98;6.03;;;8.10;99.90;;;;;;5061212;28;20380;-71
2021/10/19 03:06:26;;;;;;;11.52;5.82;;;8.10;99.90;;;;;;5053880;28;20356;-71
2021/10/19 03:09:31;;;;;;;8.85;6.32;;;8.10;99.90;;;;;;5051906;28;20502;-71
2021/10/19 03:12:34;;;;;;;14.45;8.00;;;8.10;99.90;;;;;;5054965;28;20040;-71
2021/10/19 03:15:38;;;;;;;17.20;9.73;;;8.00;99.90;;;;;;5055367;28;20039;-71
2021/10/19 03:18:42;;;;;;;19.35;9.40;;;7.80;99.90;;;;;;5051537;28;20068;-71
2021/10/19 03:21:47;;;;;;;12.10;8.18;;;7.70;99.90;;;;;;5068826;28;20301;-71
2021/10/19 03:24:51;;;;;;;13.00;8.40;;;7.60;99.90;;;;;;5070656;28;20490;-71
2021/10/19 03:27:55;;;;;;;16.38;9.23;;;7.60;99.90;;;;;;5071449;28;20381;-70
2021/10/19 03:30:58;;;;;;;14.45;9.20;;;7.50;99.90;;;;;;5070725;28;20055;-71
2021/10/19 03:34:03;;;;;;;14.68;9.40;;;7.40;99.90;;;;;;5062522;28;20052;-71
2021/10/19 03:37:07;;;;;;;21.45;9.65;;;7.40;99.90;;;;;;5051613;28;20044;-71
2021/10/19 03:40:11;;;;;;;17.65;10.32;;;7.40;99.90;;;;;;5067389;28;20051;-71
2021/10/19 03:43:15;;;;;;;13.23;9.63;;;7.40;99.90;;;;;;5064022;28;20415;-71
2021/10/19 03:46:19;;;;;;;18.08;9.88;;;7.40;99.90;;;;;;5051190;28;20055;-71
2021/10/19 03:49:23;;;;;;;14.20;8.98;;;7.40;99.90;;;;;;5070074;28;20043;-71
2021/10/19 03:52:27;;;;;;;13.57;9.27;;;7.50;99.90;;;;;;5069781;28;20048;-70
2021/10/19 03:55:31;;;;;;;15.57;11.32;;;7.40;99.90;;;;;;5070457;28;20047;-71
2021/10/19 03:58:35;;;;;;;18.95;10.70;;;7.30;99.90;;;;;;5070137;28;20052;-71
2021/10/19 04:01:39;;;;;;;21.23;13.93;;;7.30;99.90;;;;;;5066107;28;20039;-71
2021/10/19 04:04:43;;;;;;;21.10;12.20;;;7.30;99.90;;;;;;5070689;28;20064;-71
2021/10/19 04:07:47;;;;;;;19.25;10.40;;;7.30;99.90;;;;;;5071050;28;20506;-71
2021/10/19 04:10:50;;;;;;;19.90;13.57;;;7.20;99.90;;;;;;5057577;28;20052;-71
2021/10/19 04:13:54;;;;;;;21.45;11.82;;;7.20;99.90;;;;;;5054874;28;20043;-71
2021/10/19 04:16:59;;;;;;;19.48;11.63;;;7.20;99.90;;;;;;5070837;28;20059;-71
2021/10/19 04:20:05;;;;;;;18.92;10.55;;;7.20;99.90;;;;;;5069182;28;20047;-71
2021/10/19 04:23:09;;;;;;;15.85;10.00;;;7.20;99.90;;;;;;5063235;28;20048;-71
2021/10/19 04:26:13;;;;;;;18.05;10.32;;;7.10;99.90;;;;;;5050767;28;20036;-71
2021/10/19 04:29:17;;;;;;;18.52;10.20;;;7.00;99.90;;;;;;5049762;28;20597;-71
2021/10/19 04:32:21;;;;;;;16.40;9.30;;;7.00;99.90;;;;;;5051164;28;20390;-71
2021/10/19 04:35:25;;;;;;;17.05;9.35;;;7.00;99.90;;;;;;5050528;28;20036;-71
2021/10/19 04:38:29;;;;;;;15.95;9.52;;;7.10;99.90;;;;;;5049904;28;20407;-70
2021/10/19 04:41:33;;;;;;;15.23;9.10;;;7.10;99.90;;;;;;5060519;28;20047;-71
2021/10/19 04:44:37;;;;;;;18.65;10.95;;;7.10;99.90;;;;;;5070483;28;20055;-71
2021/10/19 04:47:41;;;;;;;18.25;11.35;;;7.20;99.90;;;;;;5050199;28;20064;-71
2021/10/19 04:50:45;;;;;;;49.88;12.10;;;7.20;99.90;;;;;;5062668;28;20395;-71
2021/10/19 04:53:49;;;;;;;14.80;10.00;;;7.20;99.90;;;;;;5068754;28;20043;-70
2021/10/19 04:56:52;;;;;;;16.77;10.80;;;7.10;99.90;;;;;;5049947;28;20036;-71
2021/10/19 04:59:56;;;;;;;20.33;11.43;;;6.90;99.90;;;;;;5052873;28;20040;-71
2021/10/19 05:03:01;;;;;;;25.00;11.93;;;6.80;99.90;;;;;;5053330;28;20051;-71
2021/10/19 05:06:05;;;;;;;31.55;11.95;;;6.70;99.90;;;;;;5050082;28;20048;-71
2021/10/19 05:09:09;;;;;;;23.27;11.23;;;6.70;99.90;;;;;;5065977;28;20048;-71
2021/10/19 05:12:13;;;;;;;21.17;11.45;;;6.60;99.90;;;;;;5068320;28;20118;-71
2021/10/19 05:15:17;;;;;;;24.45;12.00;;;6.60;99.90;;;;;;5049439;28;20044;-71
2021/10/19 05:18:21;;;;;;;21.95;13.27;;;6.50;99.90;;;;;;5053656;28;20048;-71
2021/10/19 05:21:25;;;;;;;27.95;14.32;;;6.40;99.90;;;;;;5056446;28;20060;-71
2021/10/19 05:24:29;;;;;;;23.13;12.70;;;6.50;99.90;;;;;;5074279;28;20526;-71
2021/10/19 05:27:33;;;;;;;20.98;12.05;;;6.50;99.90;;;;;;5054131;28;20055;-71
2021/10/19 05:30:37;;;;;;;24.88;15.02;;;6.60;99.90;;;;;;5058155;28;20071;-70
2021/10/19 05:33:41;;;;;;;29.00;18.08;;;6.60;99.90;;;;;;5074454;28;20202;-71
2021/10/19 05:36:45;;;;;;;18.67;11.95;;;6.60;99.90;;;;;;5053722;28;20377;-71
2021/10/19 05:39:49;;;;;;;21.65;11.85;;;6.70;99.90;;;;;;5059735;28;20040;-71
2021/10/19 05:42:53;;;;;;;15.57;9.18;;;6.70;99.90;;;;;;5073992;28;20246;-71
2021/10/19 05:45:58;;;;;;;16.40;10.60;;;6.80;99.90;;;;;;5054225;28;20048;-71
2021/10/19 05:49:03;;;;;;;19.77;12.95;;;6.80;99.90;;;;;;5057227;28;20052;-71
2021/10/19 05:52:07;;;;;;;26.92;12.80;;;6.90;99.90;;;;;;5055041;28;20052;-71
2021/10/19 05:55:11;;;;;;;20.48;11.93;;;7.00;99.90;;;;;;5053951;28;20104;-71
2021/10/19 05:58:15;;;;;;;21.95;11.85;;;7.10;99.90;;;;;;5067536;28;20048;-71
2021/10/19 06:01:19;;;;;;;25.45;12.70;;;7.10;99.90;;;;;;5069429;28;20044;-71
2021/10/19 06:04:24;;;;;;;18.83;12.45;;;7.10;99.90;;;;;;5053037;28;20051;-71
2021/10/19 06:07:27;;;;;;;19.27;12.32;;;7.20;99.90;;;;;;5057586;28;20059;-71
2021/10/19 06:10:32;;;;;;;19.17;12.23;;;7.30;99.90;;;;;;5062753;28;20051;-71
2021/10/19 06:13:36;;;;;;;22.17;12.05;;;7.60;99.90;;;;;;5059996;28;20039;-71
2021/10/19 06:16:40;;;;;;;16.40;10.02;;;9.90;99.90;;;;;;5069175;28;20052;-71
2021/10/19 06:19:44;;;;;;;12.88;9.15;;;13.10;99.90;;;;;;5060408;28;20048;-71
2021/10/19 06:22:48;;;;;;;13.43;9.38;;;16.00;99.90;;;;;;5066162;28;20400;-71
2021/10/19 06:25:52;;;;;;;14.48;8.88;;;18.40;99.40;;;;;;5068042;28;20044;-71
2021/10/19 06:28:55;;;;;;;19.92;9.10;;;20.10;95.80;;;;;;5065314;28;20390;-71
2021/10/19 06:31:59;;;;;;;11.48;7.20;;;21.40;92.60;;;;;;5065368;28;20040;-72
2021/10/19 06:35:04;;;;;;;15.95;8.35;;;22.10;90.40;;;;;;5067994;28;20052;-72
2021/10/19 06:38:09;;;;;;;15.70;7.63;;;22.30;88.30;;;;;;5056954;28;20059;-72
2021/10/19 06:41:14;;;;;;;13.88;8.18;;;22.90;86.50;;;;;;5062545;28;20047;-72
2021/10/19 06:44:18;;;;;;;18.60;7.97;;;22.90;83.50;;;;;;5062914;28;20040;-72
2021/10/19 06:47:22;;;;;;;12.55;7.60;;;21.70;84.00;;;;;;5068592;28;20514;-72
2021/10/19 06:50:26;;;;;;;13.13;8.00;;;21.00;85.40;;;;;;5063959;28;20068;-71
2021/10/19 06:53:30;;;;;;;15.10;9.30;;;22.20;83.60;;;;;;5060584;28;20048;-72
2021/10/19 06:56:35;;;;;;;13.38;9.32;;;23.40;81.50;;;;;;5068083;28;20047;-72
2021/10/19 06:59:39;;;;;;;12.07;7.70;;;23.70;80.00;;;;;;5066535;28;20115;-72
2021/10/19 07:02:46;;;;;;;11.43;8.05;;;24.20;78.20;;;;;;5063616;28;20047;-72
2021/10/19 07:05:50;;;;;;;10.68;8.20;;;24.90;77.00;;;;;;5064546;28;20047;-72
2021/10/19 07:08:57;;;;;;;12.60;9.15;;;25.60;76.00;;;;;;5057524;28;20055;-73
2021/10/19 07:12:03;;;;;;;13.38;8.50;;;25.40;73.50;;;;;;5068261;28;20048;-72
2021/10/19 07:15:09;;;;;;;14.07;8.07;;;25.30;73.10;;;;;;5067297;28;20044;-72
2021/10/19 07:18:13;;;;;;;9.13;7.53;;;25.40;72.50;;;;;;5055367;28;20048;-72
2021/10/19 07:21:17;;;;;;;10.85;7.35;;;25.30;73.30;;;;;;5068403;28;20044;-72
2021/10/19 07:24:21;;;;;;;11.55;7.22;;;24.40;73.80;;;;;;5061858;28;20052;-72
2021/10/19 07:27:25;;;;;;;11.13;8.38;;;22.80;75.50;;;;;;5063694;28;20043;-72
2021/10/19 07:30:30;;;;;;;13.60;8.65;;;22.50;77.10;;;;;;5062894;28;20487;-72
2021/10/19 07:33:35;;;;;;;10.45;8.35;;;21.90;77.90;;;;;;5067254;28;20056;-72
2021/10/19 07:36:41;;;;;;;10.80;8.93;;;23.00;75.70;;;;;;5063090;28;20059;-72
2021/10/19 07:39:45;;;;;;;12.77;8.95;;;23.10;75.90;;;;;;5070147;28;20048;-72
2021/10/19 07:42:50;;;;;;;12.77;9.65;;;24.30;74.50;;;;;;5064879;28;20494;-72
2021/10/19 07:45:54;;;;;;;11.82;7.75;;;23.70;72.80;;;;;;5062195;28;20051;-72
2021/10/19 07:48:58;;;;;;;12.23;7.82;;;22.60;75.10;;;;;;5061970;28;20048;-72
2021/10/19 07:52:02;;;;;;;11.40;7.80;;;21.40;76.40;;;;;;5068651;28;20043;-72
2021/10/19 07:55:07;;;;;;;16.30;7.88;;;21.10;77.50;;;;;;5065711;28;20075;-72
2021/10/19 07:58:11;;;;;;;8.57;7.00;;;21.60;76.80;;;;;;5065509;28;21401;-72
2021/10/19 08:01:16;;;;;;;9.15;6.95;;;23.40;76.10;;;;;;5068911;28;20050;-72
2021/10/19 08:04:20;;;;;;;10.15;7.00;;;26.00;72.30;;;;;;5063876;28;20044;-72
2021/10/19 08:07:24;;;;;;;13.30;7.40;;;25.30;70.60;;;;;;5066836;28;20048;-72
2021/10/19 08:10:28;;;;;;;7.57;6.28;;;24.50;72.20;;;;;;5069373;28;20048;-72
2021/10/19 08:13:33;;;;;;;10.35;8.38;;;26.70;70.40;;;;;;5065855;28;20039;-72
2021/10/19 08:16:37;;;;;;;9.77;7.50;;;26.00;69.40;;;;;;5066500;28;20523;-72
2021/10/19 08:19:41;;;;;;;9.48;7.63;;;24.80;71.50;;;;;;5064616;28;20044;-72
2021/10/19 08:22:46;;;;;;;12.30;7.78;;;26.00;70.50;;;;;;5068305;28;20786;-72
2021/10/19 08:25:50;;;;;;;10.15;6.63;;;24.20;68.80;;;;;;5065390;28;20040;-70
2021/10/19 08:28:54;;;;;;;7.88;6.35;;;26.10;68.70;;;;;;5067952;28;20047;-72
2021/10/19 08:31:58;;;;;;;8.65;6.57;;;26.80;69.70;;;;;;5068330;28;20051;-72
2021/10/19 08:35:03;;;;;;;8.73;6.80;;;25.20;69.80;;;;;;5065476;28;20048;-72
2021/10/19 08:38:07;;;;;;;8.18;6.88;;;27.60;68.20;;;;;;5066590;28;20059;-72
2021/10/19 08:41:12;;;;;;;10.38;6.15;;;27.60;67.40;;;;;;5061648;28;20055;-70
2021/10/19 08:44:16;;;;;;;9.93;6.50;;;29.80;65.80;;;;;;5061664;28;20051;-70
2021/10/19 08:47:21;;;;;;;11.88;6.30;;;30.50;64.00;;;;;;5060507;28;20103;-70
2021/10/19 08:50:25;;;;;;;8.38;5.82;;;31.30;62.50;;;;;;5065154;28;20048;-70
2021/10/19 08:53:29;;;;;;;8.13;5.78;;;32.60;62.30;;;;;;5063263;28;20059;-70
2021/10/19 08:56:37;;;;;;;6.32;5.05;;;33.70;61.10;;;;;;5059521;28;20052;-71
2021/10/19 08:59:45;;;;;;;13.75;5.68;;;34.40;59.10;;;;;;5069456;28;20039;-70
2021/10/19 09:02:50;;;;;;;6.30;4.70;;;35.60;58.80;;;;;;5059394;28;20679;-71
2021/10/19 09:05:54;;;;;;;9.35;5.18;;;36.50;56.60;;;;;;5062912;28;20071;-70
2021/10/19 09:09:05;;;;;;;7.65;4.90;;;36.80;55.20;;;;;;5064947;28;20040;-70
2021/10/19 09:12:09;;;;;;;7.07;4.88;;;37.40;55.10;;;;;;5058100;28;20681;-71
2021/10/19 09:15:13;;;;;;;7.75;5.10;;;36.90;54.30;;;;;;5062491;28;20422;-70
2021/10/19 09:18:20;;;;;;;7.55;5.07;;;34.80;54.20;;;;;;5058026;28;20044;-70
2021/10/19 09:21:28;;;;;;;11.88;4.78;;;35.20;54.80;;;;;;5062274;28;20043;-72
2021/10/19 09:24:38;;;;;;;8.05;4.70;;;35.00;54.70;;;;;;5057883;28;20758;-70
2021/10/19 09:27:42;;;;;;;6.03;4.60;;;34.70;54.40;;;;;;5058989;28;20044;-70
2021/10/19 09:30:53;;;;;;;8.15;4.97;;;36.60;53.80;;;;;;5064781;28;20395;-71
2021/10/19 09:33:58;;;;;;;6.40;4.65;;;36.60;53.50;;;;;;5068212;28;20051;-70
2021/10/19 09:37:04;;;;;;;6.57;4.95;;;36.50;53.60;;;;;;5061585;28;20043;-69
2021/10/19 09:40:10;;;;;;;6.72;5.20;;;33.30;55.30;;;;;;5064208;28;20048;-71
2021/10/19 09:43:16;;;;;;;7.68;5.25;;;33.50;55.30;;;;;;5063503;28;20044;-71
2021/10/19 09:46:24;;;;;;;8.10;4.95;;;33.90;54.90;;;;;;5055913;28;20044;-70
2021/10/19 09:49:30;;;;;;;7.78;5.53;;;34.90;53.50;;;;;;5063783;28;20048;-69
2021/10/19 09:52:37;;;;;;;10.57;6.50;;;34.50;54.10;;;;;;5064925;28;20055;-71
2021/10/19 09:55:42;;;;;;;8.73;5.82;;;32.60;55.00;;;;;;5062743;28;20047;-71
2021/10/19 09:58:46;;;;;;;9.77;5.22;;;31.50;55.90;;;;;;5063198;28;20119;-71
2021/10/19 10:01:50;;;;;;;8.15;5.60;;;32.60;55.10;;;;;;5057738;28;20044;-70
2021/10/19 10:04:54;;;;;;;8.27;5.93;;;32.80;54.00;;;;;;5053296;28;20048;-71
2021/10/19 10:08:00;;;;;;;8.15;5.55;;;33.20;54.30;;;;;;5058556;28;20510;-71
2021/10/19 10:11:05;;;;;;;9.45;4.95;;;32.20;55.20;;;;;;5066510;28;20060;-69
2021/10/19 10:14:11;;;;;;;6.20;4.53;;;32.70;54.20;;;;;;5064755;28;20051;-69
2021/10/19 10:17:15;;;;;;;8.38;4.40;;;34.20;54.50;;;;;;5070165;28;20039;-69
2021/10/19 10:20:49;;;;;;;7.35;4.22;;;34.70;53.00;;;;;;5059047;28;20044;-71
2021/10/19 10:24:05;;;;;;;7.65;4.80;;;34.50;53.30;;;;;;5069916;28;20059;-69
2021/10/19 10:27:12;;;;;;;9.82;4.75;;;33.10;52.90;;;;;;5068195;28;20051;-70
2021/10/19 10:30:21;;;;;;;5.75;3.78;;;35.80;53.80;;;;;;5060379;28;20055;-69
2021/10/19 10:33:39;;;;;;;5.85;4.45;;;35.90;53.10;;;;;;5066834;28;20043;-70
2021/10/19 10:36:47;;;;;;;5.20;3.47;;;34.20;54.40;;;;;;5061437;28;20141;-70
2021/10/19 10:39:51;;;;;;;9.68;2.88;;;37.30;52.30;;;;;;5062026;28;20044;-70
2021/10/19 10:42:59;;;;;;;3.53;2.70;;;38.10;50.10;;;;;;5068336;28;20498;-70
2021/10/19 10:46:06;;;;;;;3.17;2.70;;;39.00;48.70;;;;;;5063253;28;20067;-70
2021/10/19 10:49:13;;;;;;;3.53;2.97;;;35.10;49.70;;;;;;5067449;28;20043;-69
2021/10/19 10:52:17;;;;;;;3.42;2.72;;;35.30;51.00;;;;;;5069800;28;20051;-69
2021/10/19 10:55:23;;;;;;;3.47;2.65;;;35.20;51.50;;;;;;5062913;28;20055;-71
2021/10/19 10:58:33;;;;;;;4.20;2.92;;;36.70;50.30;;;;;;5059936;28;20055;-71
2021/10/19 11:01:37;;;;;;;3.15;2.40;;;36.00;49.80;;;;;;5064684;28;20040;-71
2021/10/19 11:04:49;;;;;;;3.80;2.20;;;38.70;49.20;;;;;;5062178;28;20035;-69
2021/10/19 11:07:53;;;;;;;4.55;1.60;;;40.20;47.20;;;;;;5069200;28;20043;-71
2021/10/19 11:11:10;;;;;;;6.32;2.55;;;41.00;46.40;;;;;;5062086;28;20527;-69
2021/10/19 11:14:23;;;;;;;3.67;1.60;;;38.00;47.20;;;;;;5058511;28;20036;-71
2021/10/19 11:17:27;;;;;;;3.25;2.65;;;36.20;45.60;;;;;;5062761;28;20509;-70
2021/10/19 11:20:30;;;;;;;7.20;3.28;;;35.60;48.70;;;;;;5056127;28;20039;-70
2021/10/19 11:23:39;;;;;;;5.95;2.80;;;34.10;50.60;;;;;;5050548;28;20055;-70
2021/10/19 11:26:45;;;;;;;5.10;2.97;;;34.80;50.40;;;;;;5071537;28;20047;-72
2021/10/19 11:29:49;;;;;;;5.13;3.40;;;31.70;51.10;;;;;;5066002;28;20040;-70
2021/10/19 11:32:54;;;;;;;5.53;2.85;;;32.80;50.50;;;;;;5071711;28;20051;-71
2021/10/19 11:35:58;;;;;;;4.03;2.47;;;34.10;50.60;;;;;;5056799;28;20497;-71
2021/10/19 11:39:11;;;;;;;3.22;2.92;;;33.00;49.60;;;;;;5063024;28;20044;-72
2021/10/19 11:42:15;;;;;;;5.35;2.80;;;33.60;50.40;;;;;;5069164;28;20337;-68
2021/10/19 11:45:22;;;;;;;6.65;2.20;;;33.20;50.00;;;;;;5056769;28;20047;-72
2021/10/19 11:48:27;;;;;;;4.40;2.42;;;33.50;49.40;;;;;;5061254;28;20048;-71
2021/10/19 11:51:32;;;;;;;3.85;2.10;;;35.20;48.80;;;;;;5051783;28;20036;-71
2021/10/19 11:54:36;;;;;;;4.38;2.13;;;34.70;48.10;;;;;;5051795;28;20396;-72
2021/10/19 11:57:40;;;;;;;3.67;2.33;;;33.70;48.70;;;;;;5051252;28;20044;-71
2021/10/19 12:00:51;;;;;;;3.38;2.25;;;35.50;48.90;;;;;;5065793;28;20040;-71
2021/10/19 12:04:00;;;;;;;2.67;2.05;;;37.40;47.70;;;;;;5065523;28;20051;-69
2021/10/19 12:07:04;;;;;;;3.83;1.75;;;38.30;46.60;;;;;;5053202;28;20399;-71
2021/10/19 12:10:12;;;;;;;2.63;1.80;;;39.60;46.00;;;;;;5065213;28;20055;-71
2021/10/19 12:13:19;;;;;;;1.98;1.45;;;40.70;45.40;;;;;;5050612;28;20040;-69
2021/10/19 12:16:28;;;;;;;6.95;1.90;;;41.20;44.70;;;;;;5057065;28;20040;-70
2021/10/19 12:19:38;;;;;;;2.63;1.83;;;35.90;44.90;;;;;;5060235;28;20044;-70
2021/10/19 12:22:44;;;;;;;1.77;1.47;;;35.30;46.70;;;;;;5057896;28;20038;-72
2021/10/19 12:25:52;;;;;;;5.75;2.42;;;36.20;46.30;;;;;;5058186;28;20285;-71
2021/10/19 12:29:03;;;;;;;2.92;2.35;;;36.20;47.60;;;;;;5061007;28;20051;-71
2021/10/19 12:32:08;;;;;;;3.47;2.05;;;35.80;47.20;;;;;;5061785;28;20043;-72
2021/10/19 12:35:13;;;;;;;4.43;2.55;;;34.40;47.80;;;;;;5064235;28;20039;-72
2021/10/19 12:38:18;;;;;;;3.40;2.28;;;35.00;48.50;;;;;;5055547;28;20407;-72
2021/10/19 12:41:24;;;;;;;4.65;2.33;;;35.50;48.10;;;;;;5053295;28;20040;-72
2021/10/19 12:44:29;;;;;;;4.55;2.15;;;31.50;48.30;;;;;;5049324;28;20056;-72
2021/10/19 12:47:33;;;;;;;5.32;2.25;;;29.70;51.90;;;;;;5050837;28;20060;-71
2021/10/19 12:50:37;;;;;;;4.18;2.70;;;28.50;54.00;;;;;;5064158;28;20391;-71
2021/10/19 12:53:45;;;;;;;3.97;2.28;;;27.80;54.10;;;;;;5063421;28;20047;-71
2021/10/19 12:56:49;;;;;;;5.30;2.28;;;26.10;55.70;;;;;;5068305;28;20058;-72
2021/10/19 12:59:53;;;;;;;4.45;2.47;;;26.60;54.80;;;;;;5063421;28;20036;-71
2021/10/19 13:02:58;;;;;;;3.08;2.15;;;27.20;54.80;;;;;;5056273;28;20044;-71
2021/10/19 13:06:05;;;;;;;4.85;2.63;;;27.50;54.40;;;;;;5056200;28;20060;-72
2021/10/19 13:09:09;;;;;;;9.73;2.75;;;27.80;55.50;;;;;;5053122;28;20036;-71
2021/10/19 13:12:13;;;;;;;5.30;3.22;;;28.00;56.10;;;;;;5059277;28;20051;-71
2021/10/19 13:15:17;;;;;;;5.30;2.92;;;28.20;56.10;;;;;;5065134;28;20313;-71
2021/10/19 13:18:23;;;;;;;5.30;2.65;;;28.80;55.90;;;;;;5061674;28;20036;-71
2021/10/19 13:21:27;;;;;;;5.78;3.22;;;29.20;55.00;;;;;;5063976;28;20036;-71
2021/10/19 13:24:31;;;;;;;3.70;2.70;;;29.10;54.90;;;;;;5062133;28;20051;-73
2021/10/19 13:27:36;;;;;;;4.40;3.03;;;28.80;56.10;;;;;;5065526;28;20067;-73
2021/10/19 13:30:40;;;;;;;5.75;3.33;;;28.30;57.00;;;;;;5064038;28;20044;-73
2021/10/19 13:33:44;;;;;;;9.68;3.70;;;27.70;58.30;;;;;;5054439;28;20040;-72
2021/10/19 13:36:50;;;;;;;20.98;14.65;;;27.10;59.00;;;;;;5069154;28;20051;-70
2021/10/19 13:39:54;;;;;;;25.08;15.48;;;26.60;59.90;;;;;;5052188;28;20044;-73
2021/10/19 13:42:58;;;;;;;12.38;7.25;;;26.40;61.00;;;;;;5062635;28;20036;-73
2021/10/19 13:46:02;;;;;;;16.83;11.15;;;26.40;60.90;;;;;;5068309;28;20044;-73
2021/10/19 13:49:07;;;;;;;25.90;17.02;;;26.60;61.30;;;;;;5057233;28;20068;-72
2021/10/19 13:52:10;;;;;;;30.05;20.73;;;26.80;60.40;;;;;;5072344;28;20040;-73
2021/10/19 13:55:16;;;;;;;44.08;26.00;;;26.90;60.30;;;;;;5073199;28;20043;-72
2021/10/19 13:58:20;;;;;;;16.10;10.82;;;26.80;60.70;;;;;;5064617;28;20415;-72
2021/10/19 14:01:24;;;;;;;10.40;4.32;;;26.60;61.10;;;;;;5053070;28;20075;-72
2021/10/19 14:04:29;;;;;;;11.68;5.90;;;26.50;60.10;;;;;;5056778;28;20040;-73
2021/10/19 14:07:34;;;;;;;20.35;7.88;;;26.50;59.60;;;;;;5071522;28;20067;-72
2021/10/19 14:10:42;;;;;;;13.25;5.28;;;26.50;59.30;;;;;;5058425;28;20047;-72
2021/10/19 14:13:45;;;;;;;10.07;5.00;;;27.30;58.70;;;;;;5052887;28;20051;-73
2021/10/19 14:16:50;;;;;;;7.35;4.07;;;27.10;58.00;;;;;;5064958;28;20052;-72
2021/10/19 14:19:54;;;;;;;5.95;3.20;;;26.60;58.80;;;;;;5063916;28;20652;-72
2021/10/19 14:22:59;;;;;;;9.50;3.38;;;26.30;58.70;;;;;;5055740;28;20059;-72
2021/10/19 14:26:03;;;;;;;7.15;4.30;;;25.70;58.90;;;;;;5072556;28;20044;-72
2021/10/19 14:29:07;;;;;;;6.32;3.58;;;25.30;59.50;;;;;;5059645;28;20368;-72
2021/10/19 14:32:12;;;;;;;11.02;4.35;;;25.10;60.00;;;;;;5057422;28;20524;-72
2021/10/19 14:35:17;;;;;;;16.20;7.78;;;25.20;59.80;;;;;;5072549;28;20057;-72
2021/10/19 14:38:21;;;;;;;7.25;4.07;;;25.40;60.00;;;;;;5052350;28;20055;-72
2021/10/19 14:41:25;;;;;;;11.45;6.05;;;25.10;60.00;;;;;;5062604;28;20051;-72
2021/10/19 14:44:30;;;;;;;15.43;5.43;;;24.90;60.20;;;;;;5052980;28;20059;-72
2021/10/19 14:47:34;;;;;;;12.70;5.07;;;24.80;60.60;;;;;;5068075;28;20039;-72
2021/10/19 14:50:38;;;;;;;26.50;13.45;;;24.60;60.70;;;;;;5064205;28;20047;-71
2021/10/19 14:53:42;;;;;;;13.82;5.95;;;24.40;61.40;;;;;;5072625;28;20537;-72
2021/10/19 14:56:47;;;;;;;25.08;12.88;;;24.20;61.60;;;;;;5062432;28;20360;-72
2021/10/19 14:59:51;;;;;;;16.85;9.75;;;24.00;62.10;;;;;;5052070;28;20048;-72
2021/10/19 15:02:54;;;;;;;13.18;5.82;;;23.80;62.70;;;;;;5053848;28;20071;-72
2021/10/19 15:06:00;;;;;;;9.95;4.75;;;23.50;62.80;;;;;;5059879;28;20039;-71
2021/10/19 15:09:04;;;;;;;8.38;4.10;;;23.10;63.80;;;;;;5062473;28;20052;-72
2021/10/19 15:12:08;;;;;;;12.63;6.07;;;22.80;64.40;;;;;;5064615;28;20044;-72
2021/10/19 15:15:14;;;;;;;27.35;7.63;;;22.60;65.20;;;;;;5072634;28;20048;-72
2021/10/19 15:18:18;;;;;;;21.70;7.38;;;22.30;65.30;;;;;;5054947;28;20534;-72
2021/10/19 15:21:23;;;;;;;25.10;6.97;;;22.20;65.70;;;;;;5051953;28;20050;-72
2021/10/19 15:24:28;;;;;;;11.52;4.72;;;22.00;66.40;;;;;;5051711;28;20059;-72
2021/10/19 15:27:34;;;;;;;10.85;5.75;;;21.90;66.50;;;;;;5051376;28;20036;-72
2021/10/19 15:30:38;;;;;;;15.75;6.57;;;21.70;66.40;;;;;;5055900;28;20055;-72
2021/10/19 15:33:43;;;;;;;16.08;8.38;;;21.50;66.70;;;;;;5051814;28;20044;-72
2021/10/19 15:36:47;;;;;;;26.85;9.93;;;21.30;67.00;;;;;;5051209;28;20040;-72
2021/10/19 15:39:51;;;;;;;26.88;10.45;;;21.20;67.50;;;;;;5059443;28;20047;-72
2021/10/19 15:42:55;;;;;;;26.20;11.27;;;21.00;67.90;;;;;;5071329;28;20387;-72
2021/10/19 15:45:59;;;;;;;19.67;10.95;;;20.80;68.80;;;;;;5050698;28;20047;-72
2021/10/19 15:49:04;;;;;;;14.50;7.82;;;20.70;69.20;;;;;;5061222;28;20047;-72
2021/10/19 15:52:08;;;;;;;18.08;8.60;;;20.50;69.30;;;;;;5071276;28;20039;-72
2021/10/19 15:55:12;;;;;;;16.45;7.43;;;20.30;69.40;;;;;;5051059;28;20071;-72
2021/10/19 15:58:17;;;;;;;10.85;6.28;;;20.20;70.00;;;;;;5053894;28;20051;-72